Pontpierre, Luxembourg
Current Conditions -  °F | °C
As of 1:20 AM on Thursday 25 Dec 2014 (Local Time) from ELLX Reporting Station
NA  
Wind Chill: 34°   Ceiling: NA
Heat Index: 39°   Visibility: 6mi
Dew Point: 39°   Wind: 8mph
Humidity: 100%   Direction: 290°WNW
Pressure: 30.18"   Gusts: NA
Location:  49.54°N, 6.03°E
Report Text: ELLX 250020Z AUTO 29007KT 260V320 9999 NDV 04/04 Q1022
Loading
Personal Weather Stations






























Interactive Weather Map New forecast layout! Learn more

10-Day Weather Forecast

Advertisements
Track Severe Weather on mobile